createdAt,value
2022-11-19T00:02:27.710Z,100324.81
2022-11-19T00:05:12.880Z,100325.63
2022-11-19T00:07:57.782Z,100333.41
2022-11-19T00:10:42.675Z,100330.47
2022-11-19T00:13:27.719Z,100330.25
2022-11-19T00:16:14.130Z,100329.69
2022-11-19T00:18:59.363Z,100330.41
2022-11-19T00:21:44.965Z,100320.22
2022-11-19T00:24:30.375Z,100326.19
2022-11-19T00:27:15.265Z,100321.38
2022-11-19T00:30:00.314Z,100318.66
2022-11-19T00:32:46.244Z,100327.56
2022-11-19T00:35:31.318Z,100315.97
2022-11-19T00:38:16.569Z,100314.69
2022-11-19T00:41:02.095Z,100314.91
2022-11-19T00:43:47.708Z,100304.06
2022-11-19T00:46:32.784Z,100303.66
2022-11-19T00:49:18.563Z,100304.22
2022-11-19T00:52:04.240Z,100297.22
2022-11-19T00:54:49.268Z,100301.13
2022-11-19T00:57:34.492Z,100306.91
2022-11-19T01:00:20.200Z,100303.50
2022-11-19T01:03:05.744Z,100300.72
2022-11-19T01:05:51.652Z,100297.00
2022-11-19T01:08:37.351Z,100300.47
2022-11-19T01:11:25.730Z,100293.97
2022-11-19T01:14:10.704Z,100306.13
2022-11-19T01:16:55.804Z,100304.63
2022-11-19T01:19:41.125Z,100304.84
2022-11-19T01:22:26.012Z,100301.34
2022-11-19T01:25:11.771Z,100315.84
2022-11-19T01:27:57.144Z,100299.44
2022-11-19T01:30:43.289Z,100304.69
2022-11-19T01:33:28.386Z,100307.25
2022-11-19T01:36:20.107Z,100301.13
2022-11-19T01:39:05.577Z,100306.28
2022-11-19T01:41:50.760Z,100314.41
2022-11-19T01:45:00.809Z,100306.91
2022-11-19T01:47:46.002Z,100310.97
2022-11-19T01:50:37.502Z,100313.28
2022-11-19T01:53:27.589Z,100317.44
2022-11-19T01:56:13.700Z,100319.16
2022-11-19T01:59:02.458Z,100317.44
2022-11-19T02:01:47.760Z,100325.38
2022-11-19T02:04:34.677Z,100321.25
2022-11-19T02:07:21.808Z,100334.13
2022-11-19T02:10:07.540Z,100336.63
2022-11-19T02:13:17.631Z,100340.28
2022-11-19T02:16:17.633Z,100335.91
2022-11-19T02:19:21.097Z,100334.78
2022-11-19T02:22:25.192Z,100336.06
2022-11-19T02:25:55.545Z,100333.19
2022-11-19T02:29:02.439Z,100332.31
2022-11-19T02:32:05.610Z,100334.13
2022-11-19T02:34:58.693Z,100337.88
2022-11-19T02:37:56.157Z,100348.78
2022-11-19T02:40:52.343Z,100353.06
2022-11-19T02:43:41.604Z,100347.81
2022-11-19T02:46:27.301Z,100337.88
2022-11-19T02:49:13.259Z,100347.91
2022-11-19T02:51:58.934Z,100346.69
2022-11-19T02:54:44.084Z,100346.28
2022-11-19T02:57:29.200Z,100343.38
2022-11-19T03:00:14.904Z,100347.41
2022-11-19T03:03:07.786Z,100352.34
2022-11-19T03:05:58.929Z,100353.94
2022-11-19T03:08:45.724Z,100357.44
2022-11-19T03:11:32.834Z,100356.66
2022-11-19T03:14:30.322Z,100354.69
2022-11-19T03:17:20.492Z,100352.44
2022-11-19T03:20:25.107Z,100365.34
2022-11-19T03:23:23.052Z,100358.72
2022-11-19T03:26:21.895Z,100370.81
2022-11-19T03:29:11.561Z,100374.84
2022-11-19T03:32:04.202Z,100371.59
2022-11-19T03:34:55.269Z,100367.22
2022-11-19T03:37:43.527Z,100354.56
2022-11-19T03:40:31.287Z,100351.88
2022-11-19T03:43:20.554Z,100348.94
2022-11-19T03:46:09.958Z,100353.00
2022-11-19T03:48:56.969Z,100351.88
2022-11-19T03:52:13.588Z,100362.28
2022-11-19T03:54:59.206Z,100360.63
2022-11-19T03:57:45.217Z,100361.88
2022-11-19T04:00:31.068Z,100376.50
2022-11-19T04:03:16.326Z,100368.38
2022-11-19T04:06:02.786Z,100369.19
2022-11-19T04:08:48.064Z,100368.88
2022-11-19T04:11:32.944Z,100358.00
2022-11-19T04:14:17.839Z,100356.00
2022-11-19T04:17:03.308Z,100354.31
2022-11-19T04:19:48.192Z,100354.47
2022-11-19T04:22:33.759Z,100355.31
2022-11-19T04:25:18.702Z,100346.97
2022-11-19T04:28:03.531Z,100332.97
2022-11-19T04:30:48.923Z,100325.19
2022-11-19T04:33:34.492Z,100324.69
2022-11-19T04:36:19.699Z,100341.63
2022-11-19T04:39:04.624Z,100347.63
2022-11-19T04:41:49.564Z,100359.47
2022-11-19T04:44:34.468Z,100366.16
2022-11-19T04:47:19.946Z,100373.53
2022-11-19T04:50:05.689Z,100369.84
2022-11-19T04:52:50.772Z,100371.78
2022-11-19T04:55:36.322Z,100372.16
2022-11-19T04:58:21.329Z,100368.75
2022-11-19T05:01:06.389Z,100369.38
2022-11-19T05:03:51.773Z,100365.88
2022-11-19T05:06:38.565Z,100361.91
2022-11-19T05:09:23.979Z,100362.00
2022-11-19T05:12:08.856Z,100361.13
2022-11-19T05:14:53.810Z,100364.81
2022-11-19T05:17:38.719Z,100363.69
2022-11-19T05:20:23.617Z,100354.56
2022-11-19T05:23:08.445Z,100350.03
2022-11-19T05:25:53.322Z,100354.47
2022-11-19T05:28:39.779Z,100364.47
2022-11-19T05:31:25.493Z,100378.81
2022-11-19T05:34:10.638Z,100385.75
2022-11-19T05:36:55.552Z,100380.56
2022-11-19T05:39:40.495Z,100383.56
2022-11-19T05:42:25.777Z,100382.88
2022-11-19T05:45:11.856Z,100386.78
2022-11-19T05:47:57.887Z,100376.19
2022-11-19T05:50:42.780Z,100390.81
2022-11-19T05:53:28.133Z,100385.47
2022-11-19T05:56:13.063Z,100378.88
2022-11-19T05:58:57.988Z,100393.94
2022-11-19T06:01:42.921Z,100398.56
2022-11-19T06:04:27.949Z,100396.63
2022-11-19T06:07:12.913Z,100400.13
2022-11-19T06:09:58.216Z,100422.19
2022-11-19T06:12:45.855Z,100431.84
2022-11-19T06:15:31.255Z,100420.06
2022-11-19T06:18:16.225Z,100422.19
2022-11-19T06:21:01.173Z,100417.81
2022-11-19T06:23:46.183Z,100415.09
2022-11-19T06:26:33.307Z,100424.38
2022-11-19T06:29:20.042Z,100429.34
2022-11-19T06:32:05.364Z,100430.03
2022-11-19T06:34:50.611Z,100457.47
2022-11-19T06:37:35.553Z,100457.06
2022-11-19T06:40:20.381Z,100465.84
2022-11-19T06:43:05.835Z,100461.53
2022-11-19T06:45:50.768Z,100447.94
2022-11-19T06:48:35.910Z,100444.59
2022-11-19T06:51:21.101Z,100443.84
2022-11-19T06:54:05.962Z,100450.47
2022-11-19T06:56:51.252Z,100440.53
2022-11-19T06:59:36.346Z,100449.81
2022-11-19T07:02:21.770Z,100453.03
2022-11-19T07:05:07.993Z,100452.44
2022-11-19T07:07:53.186Z,100455.56
2022-11-19T07:10:38.012Z,100460.63
2022-11-19T07:13:22.863Z,100461.25
2022-11-19T07:16:07.876Z,100456.94
2022-11-19T07:18:53.373Z,100464.53
2022-11-19T07:21:38.328Z,100470.69
2022-11-19T07:24:23.367Z,100467.97
2022-11-19T07:27:08.281Z,100462.97
2022-11-19T07:29:53.150Z,100450.22
2022-11-19T07:32:38.153Z,100436.38
2022-11-19T07:35:23.562Z,100436.56
2022-11-19T07:38:08.575Z,100447.38
2022-11-19T07:40:54.944Z,100442.00
2022-11-19T07:43:40.432Z,100437.44
2022-11-19T07:46:25.326Z,100452.03
2022-11-19T07:49:11.176Z,100459.94
2022-11-19T07:51:56.800Z,100458.28
2022-11-19T07:54:41.982Z,100468.44
2022-11-19T07:57:30.253Z,100469.03
2022-11-19T08:00:18.591Z,100468.44
2022-11-19T08:03:03.798Z,100486.09
2022-11-19T08:05:49.079Z,100495.84
2022-11-19T08:08:34.563Z,100496.50
2022-11-19T08:11:19.848Z,100491.44
2022-11-19T08:14:04.830Z,100485.16
2022-11-19T08:16:49.720Z,100466.06
2022-11-19T08:19:34.836Z,100453.47
2022-11-19T08:22:21.491Z,100470.81
2022-11-19T08:25:06.794Z,100460.09
2022-11-19T08:27:51.766Z,100471.47
2022-11-19T08:30:38.111Z,100452.28
2022-11-19T08:33:23.406Z,100458.78
2022-11-19T08:36:08.373Z,100457.97
2022-11-19T08:38:56.400Z,100455.25
2022-11-19T08:41:41.318Z,100446.41
2022-11-19T08:44:26.615Z,100448.63
2022-11-19T08:47:12.257Z,100449.97
2022-11-19T08:49:57.577Z,100428.34
2022-11-19T08:52:42.807Z,100396.13
2022-11-19T08:55:28.588Z,100389.50
2022-11-19T08:58:13.485Z,100383.72
2022-11-19T09:00:59.183Z,100384.94
2022-11-19T09:03:44.669Z,100369.03
2022-11-19T09:06:29.973Z,100354.75
2022-11-19T09:09:14.975Z,100363.75
2022-11-19T09:11:59.730Z,100366.41
2022-11-19T09:14:44.835Z,100350.38
2022-11-19T09:17:31.375Z,100340.03
2022-11-19T09:20:17.145Z,100338.78
2022-11-19T09:23:03.128Z,100358.16
2022-11-19T09:26:02.280Z,100362.19
2022-11-19T09:28:47.507Z,100342.81
2022-11-19T09:31:32.400Z,100353.78
2022-11-19T09:34:18.176Z,100332.53
2022-11-19T09:37:03.473Z,100347.84
2022-11-19T09:39:48.779Z,100342.00
2022-11-19T09:42:55.470Z,100309.13
2022-11-19T09:46:02.575Z,100308.09
2022-11-19T09:48:52.363Z,100264.94
2022-11-19T09:51:40.562Z,100283.34
2022-11-19T09:54:26.155Z,100281.69
2022-11-19T09:57:18.194Z,100292.63
2022-11-19T10:00:05.194Z,100266.16
2022-11-19T10:02:50.945Z,100215.19
2022-11-19T10:06:01.818Z,100229.03
2022-11-19T10:09:02.163Z,100236.66
2022-11-19T10:11:53.197Z,100238.19
2022-11-19T10:14:56.365Z,100193.22
2022-11-19T10:17:55.992Z,100156.47
2022-11-19T10:21:09.051Z,100168.19
2022-11-19T10:24:20.674Z,100161.41
2022-11-19T10:27:18.143Z,100150.56
2022-11-19T10:30:12.494Z,100166.56
2022-11-19T10:32:57.633Z,100149.81
2022-11-19T10:35:48.344Z,100106.69
2022-11-19T10:38:41.292Z,100076.50
2022-11-19T10:41:54.254Z,100103.94
2022-11-19T10:44:43.931Z,100064.56
2022-11-19T10:47:32.970Z,100137.50
2022-11-19T10:50:20.903Z,100136.44
2022-11-19T10:53:11.395Z,100086.16
2022-11-19T10:56:00.712Z,100085.53
2022-11-19T10:58:52.141Z,100086.59
2022-11-19T11:01:40.728Z,100065.00
2022-11-19T11:04:28.889Z,100077.31
2022-11-19T11:07:14.211Z,100097.00
2022-11-19T11:09:59.300Z,100077.53
2022-11-19T11:12:44.191Z,100035.84
2022-11-19T11:15:29.611Z,100039.69
2022-11-19T11:18:15.297Z,100071.13
2022-11-19T11:21:00.597Z,100038.94
2022-11-19T11:23:56.655Z,100083.66
2022-11-19T11:26:41.815Z,100066.28
2022-11-19T11:29:27.027Z,100011.41
2022-11-19T11:32:31.609Z,99981.63
2022-11-19T11:35:34.431Z,100020.44
2022-11-19T11:38:23.059Z,100000.00
2022-11-19T11:42:04.367Z,100035.59
2022-11-19T11:44:32.558Z,100031.13
2022-11-19T11:47:22.480Z,100043.63
2022-11-19T11:50:08.026Z,100012.66
2022-11-19T11:52:55.476Z,99991.00
2022-11-19T11:55:40.958Z,100019.78
2022-11-19T11:58:32.326Z,100034.47
2022-11-19T12:01:17.740Z,99961.31
2022-11-19T12:04:02.873Z,100053.34
2022-11-19T12:07:10.209Z,100093.56
2022-11-19T12:09:55.521Z,100052.69
2022-11-19T12:13:09.603Z,100089.75
2022-11-19T12:16:21.818Z,100072.84
2022-11-19T12:19:22.159Z,100079.13
2022-11-19T12:22:26.288Z,100053.28
2022-11-19T12:25:33.022Z,100100.44
2022-11-19T12:28:43.926Z,100107.69
2022-11-19T12:31:47.691Z,100107.03
2022-11-19T12:35:11.732Z,100047.25
2022-11-19T12:38:26.981Z,100064.94
2022-11-19T12:41:49.454Z,100086.53
2022-11-19T12:45:12.201Z,100158.88
2022-11-19T12:48:06.272Z,100020.63
2022-11-19T12:51:21.973Z,100045.34
2022-11-19T12:54:34.617Z,100010.25
2022-11-19T12:57:29.240Z,100014.13
2022-11-19T13:00:17.777Z,100021.50
2022-11-19T13:03:09.278Z,100093.50
2022-11-19T13:06:00.484Z,100052.00
2022-11-19T13:08:51.651Z,100135.53
2022-11-19T13:11:44.709Z,100105.41
2022-11-19T13:14:50.712Z,100123.09
2022-11-19T13:17:45.050Z,100091.03
2022-11-19T13:20:51.549Z,100120.16
2022-11-19T13:23:45.920Z,100055.84
2022-11-19T13:26:33.164Z,100024.06
2022-11-19T13:29:37.044Z,100035.44
2022-11-19T13:32:46.445Z,100004.09
2022-11-19T13:35:41.989Z,100070.91
2022-11-19T13:38:51.635Z,99977.63
2022-11-19T13:41:44.252Z,99967.31
2022-11-19T13:44:29.936Z,100029.03
2022-11-19T13:47:47.390Z,100010.59
2022-11-19T13:50:40.980Z,99947.81
2022-11-19T13:53:38.912Z,99987.75
2022-11-19T13:56:38.347Z,99963.09
2022-11-19T13:59:44.200Z,100052.81
2022-11-19T14:02:54.523Z,100037.19
2022-11-19T14:05:53.804Z,100067.16
2022-11-19T14:09:00.385Z,100087.88
2022-11-19T14:12:03.274Z,100125.44
2022-11-19T14:15:25.872Z,100121.94
2022-11-19T14:18:24.020Z,100122.09
2022-11-19T14:21:24.604Z,100123.56
2022-11-19T14:24:24.919Z,100117.56
2022-11-19T14:27:19.252Z,100091.31
2022-11-19T14:30:10.809Z,100113.84
2022-11-19T14:32:56.224Z,100120.06
2022-11-19T14:35:41.192Z,100092.72
2022-11-19T14:38:36.400Z,100046.59
2022-11-19T14:41:27.312Z,100017.41
2022-11-19T14:44:24.989Z,100019.34
2022-11-19T14:47:22.169Z,100077.28
2022-11-19T14:50:29.359Z,100129.66
2022-11-19T14:53:19.789Z,100121.63
2022-11-19T14:56:13.270Z,100160.47
2022-11-19T14:59:14.271Z,100198.63
2022-11-19T15:02:22.783Z,100224.19
2022-11-19T15:05:26.337Z,100205.06
2022-11-19T15:08:18.080Z,100250.44
2022-11-19T15:11:06.352Z,100246.59
2022-11-19T15:14:28.896Z,100286.31
2022-11-19T15:17:14.042Z,100324.91
2022-11-19T15:20:17.157Z,100344.13
2022-11-19T15:23:17.589Z,100385.88
2022-11-19T15:26:11.909Z,100396.03
2022-11-19T15:29:22.454Z,100388.13
2022-11-19T15:32:26.073Z,100405.66
2022-11-19T15:35:19.985Z,100406.22
2022-11-19T15:38:19.728Z,100423.88
2022-11-19T15:41:10.465Z,100433.69
2022-11-19T15:43:59.364Z,100457.66
2022-11-19T15:46:53.289Z,100469.97
2022-11-19T15:49:40.398Z,100472.63
2022-11-19T15:52:32.134Z,100476.53
2022-11-19T15:55:23.370Z,100490.38
2022-11-19T15:58:15.932Z,100526.47
2022-11-19T16:01:01.951Z,100596.16
2022-11-19T16:03:48.396Z,100561.09
2022-11-19T16:06:36.357Z,100553.41
2022-11-19T16:09:24.602Z,100531.97
2022-11-19T16:12:20.801Z,100529.81
2022-11-19T16:15:22.834Z,100520.97
2022-11-19T16:18:19.067Z,100529.00
2022-11-19T16:21:04.421Z,100562.88
2022-11-19T16:23:49.998Z,100561.38
2022-11-19T16:26:43.931Z,100577.56
2022-11-19T16:29:40.765Z,100606.03
2022-11-19T16:32:27.397Z,100585.84
2022-11-19T16:35:28.607Z,100604.78
2022-11-19T16:38:27.055Z,100602.88
2022-11-19T16:41:12.912Z,100616.81
2022-11-19T16:43:59.100Z,100638.63
2022-11-19T16:46:44.793Z,100632.16
2022-11-19T16:49:32.862Z,100625.44
2022-11-19T16:52:33.292Z,100611.09
2022-11-19T16:55:18.173Z,100606.88
2022-11-19T16:58:14.311Z,100614.03
2022-11-19T17:00:59.418Z,100647.25
2022-11-19T17:03:45.145Z,100646.59
2022-11-19T17:06:33.012Z,100648.66
2022-11-19T17:09:41.801Z,100656.56
2022-11-19T17:12:28.544Z,100675.41
2022-11-19T17:15:37.572Z,100676.69
2022-11-19T17:18:32.321Z,100669.09
2022-11-19T17:21:29.495Z,100656.75
2022-11-19T17:24:17.737Z,100630.88
2022-11-19T17:27:03.333Z,100629.56
2022-11-19T17:29:49.114Z,100625.66
2022-11-19T17:32:39.064Z,100649.72
2022-11-19T17:35:36.396Z,100661.81
2022-11-19T17:38:24.773Z,100678.81
2022-11-19T17:41:14.686Z,100679.91
2022-11-19T17:43:59.939Z,100684.09
2022-11-19T17:46:44.885Z,100684.00
2022-11-19T17:49:30.079Z,100683.50
2022-11-19T17:52:25.822Z,100672.97
2022-11-19T17:55:20.360Z,100660.66
2022-11-19T17:58:05.566Z,100657.72
2022-11-19T18:00:50.962Z,100659.13
2022-11-19T18:03:36.137Z,100651.69
2022-11-19T18:06:21.558Z,100646.19
2022-11-19T18:09:07.378Z,100656.47
2022-11-19T18:11:52.152Z,100657.03
2022-11-19T18:14:37.501Z,100684.84
2022-11-19T18:17:23.131Z,100694.63
2022-11-19T18:20:09.038Z,100689.25
2022-11-19T18:22:54.249Z,100682.59
2022-11-19T18:25:39.919Z,100689.34
2022-11-19T18:28:24.908Z,100694.81
2022-11-19T18:31:17.620Z,100690.94
2022-11-19T18:34:02.755Z,100679.66
2022-11-19T18:36:48.091Z,100682.47
2022-11-19T18:39:33.683Z,100677.41
2022-11-19T18:42:18.806Z,100680.44
2022-11-19T18:45:05.121Z,100683.50
2022-11-19T18:47:50.481Z,100694.50
2022-11-19T18:50:35.938Z,100690.63
2022-11-19T18:53:20.978Z,100683.22
2022-11-19T18:56:06.627Z,100694.09
2022-11-19T18:58:51.823Z,100702.97
2022-11-19T19:01:37.434Z,100684.06
2022-11-19T19:04:23.299Z,100680.34
2022-11-19T19:07:08.822Z,100665.19
2022-11-19T19:09:54.394Z,100657.22
2022-11-19T19:12:39.811Z,100645.69
2022-11-19T19:15:24.744Z,100646.66
2022-11-19T19:18:10.652Z,100659.19
2022-11-19T19:20:56.064Z,100666.59
2022-11-19T19:23:41.657Z,100670.41
2022-11-19T19:26:27.118Z,100670.47
2022-11-19T19:29:12.310Z,100671.69
2022-11-19T19:31:57.996Z,100671.25
2022-11-19T19:34:43.317Z,100671.69
2022-11-19T19:37:28.314Z,100667.75
2022-11-19T19:40:13.843Z,100679.69
2022-11-19T19:42:58.829Z,100665.34
2022-11-19T19:45:43.718Z,100677.81
2022-11-19T19:48:28.607Z,100671.25
2022-11-19T19:51:15.105Z,100669.09
2022-11-19T19:54:00.958Z,100660.88
2022-11-19T19:56:46.156Z,100660.00
2022-11-19T19:59:31.459Z,100661.06
2022-11-19T20:02:16.626Z,100664.50
2022-11-19T20:05:02.171Z,100677.47
2022-11-19T20:07:47.197Z,100673.41
2022-11-19T20:10:32.230Z,100675.94
2022-11-19T20:13:17.376Z,100669.19
2022-11-19T20:16:05.774Z,100672.06
2022-11-19T20:18:52.918Z,100677.78
2022-11-19T20:21:38.383Z,100682.28
2022-11-19T20:24:23.635Z,100684.72
2022-11-19T20:27:08.796Z,100682.19
2022-11-19T20:29:54.144Z,100685.81
2022-11-19T20:32:39.003Z,100689.06
2022-11-19T20:35:24.674Z,100686.75
2022-11-19T20:38:09.997Z,100696.75
2022-11-19T20:41:00.167Z,100682.19
2022-11-19T20:43:50.083Z,100686.44
2022-11-19T20:46:37.706Z,100697.53
2022-11-19T20:49:25.773Z,100687.97
2022-11-19T20:52:11.330Z,100682.91
2022-11-19T20:54:57.939Z,100677.75
2022-11-19T20:57:45.501Z,100679.31
2022-11-19T21:00:30.811Z,100676.81
2022-11-19T21:03:16.646Z,100685.81
2022-11-19T21:06:03.821Z,100684.16
2022-11-19T21:08:49.021Z,100682.09
2022-11-19T21:11:34.534Z,100684.06
2022-11-19T21:14:20.156Z,100685.63
2022-11-19T21:17:05.726Z,100682.97
2022-11-19T21:19:51.150Z,100682.75
2022-11-19T21:22:36.432Z,100681.44
2022-11-19T21:25:21.685Z,100665.47
2022-11-19T21:28:07.230Z,100671.53
2022-11-19T21:30:52.790Z,100675.03
2022-11-19T21:33:38.160Z,100674.72
2022-11-19T21:36:23.582Z,100671.97
2022-11-19T21:39:09.989Z,100667.13
2022-11-19T21:41:55.052Z,100664.25
2022-11-19T21:44:40.422Z,100653.13
2022-11-19T21:47:25.525Z,100656.88
2022-11-19T21:50:10.707Z,100652.06
2022-11-19T21:52:55.613Z,100662.72
2022-11-19T21:55:45.315Z,100655.56
2022-11-19T21:58:30.768Z,100655.13
2022-11-19T22:01:16.668Z,100653.06
2022-11-19T22:04:02.423Z,100658.44
2022-11-19T22:06:47.653Z,100662.06
2022-11-19T22:09:32.783Z,100655.81
2022-11-19T22:12:18.180Z,100653.34
2022-11-19T22:15:03.709Z,100660.28
2022-11-19T22:17:48.826Z,100657.75
2022-11-19T22:20:34.095Z,100666.00
2022-11-19T22:23:24.161Z,100659.88
2022-11-19T22:26:11.546Z,100659.88
2022-11-19T22:28:57.374Z,100656.13
2022-11-19T22:31:42.824Z,100650.75
2022-11-19T22:34:28.128Z,100649.31
2022-11-19T22:37:13.245Z,100641.94
2022-11-19T22:39:58.717Z,100638.53
2022-11-19T22:42:43.938Z,100637.97
2022-11-19T22:45:29.352Z,100652.25
2022-11-19T22:48:14.669Z,100655.66
2022-11-19T22:51:04.439Z,100658.78
2022-11-19T22:53:51.950Z,100657.34
2022-11-19T22:56:37.939Z,100640.59
2022-11-19T22:59:23.763Z,100640.16
2022-11-19T23:02:09.046Z,100638.63
2022-11-19T23:04:53.843Z,100632.47
2022-11-19T23:07:38.616Z,100632.13
2022-11-19T23:10:24.219Z,100632.63
2022-11-19T23:13:12.083Z,100644.16
2022-11-19T23:16:10.235Z,100652.53
2022-11-19T23:18:56.207Z,100663.50
2022-11-19T23:21:41.542Z,100651.44
2022-11-19T23:24:29.430Z,100662.31
2022-11-19T23:27:20.766Z,100660.09
2022-11-19T23:30:08.505Z,100634.97
2022-11-19T23:32:53.913Z,100634.84
2022-11-19T23:35:39.964Z,100637.47
2022-11-19T23:38:26.279Z,100636.22
2022-11-19T23:41:13.259Z,100631.59
2022-11-19T23:43:58.364Z,100634.63
2022-11-19T23:46:43.724Z,100625.19
2022-11-19T23:49:29.109Z,100625.41
2022-11-19T23:52:14.150Z,100620.56
2022-11-19T23:54:59.132Z,100609.78
2022-11-19T23:57:44.079Z,100610.44
